Time;durP1;ratioP1;P1;durP2;ratioP2;P2;SDS_P1;SDS_P2;PMS_P1;PMS_P2;Temp;Humidity;BMP_temperature;BMP_pressure;BME280_temperature;BME280_humidity;BME280_pressure;Samples;Min_cycle;Max_cycle;Signal;HPM_P1;HPM_P2
2021/10/25 00:00:21;;;;;;;8.23;6.80;;;8.60;99.90;;;;;;5030889;28;20424;-67
2021/10/25 00:02:46;;;;;;;7.70;5.13;;;8.60;99.90;;;;;;5024268;28;20281;-67
2021/10/25 00:05:12;;;;;;;9.57;6.30;;;8.50;99.90;;;;;;5033115;28;20210;-68
2021/10/25 00:07:38;;;;;;;5.10;4.60;;;8.50;99.90;;;;;;5032306;28;20191;-67
2021/10/25 00:10:05;;;;;;;6.73;5.23;;;8.50;99.90;;;;;;5032835;28;20200;-67
2021/10/25 00:12:32;;;;;;;8.23;6.50;;;8.40;99.90;;;;;;5033059;28;20522;-67
2021/10/25 00:14:57;;;;;;;6.20;5.50;;;8.40;99.90;;;;;;5033115;28;20398;-66
2021/10/25 00:17:23;;;;;;;5.40;4.90;;;8.40;99.90;;;;;;5033241;28;20391;-68
2021/10/25 00:19:49;;;;;;;6.47;5.30;;;8.40;99.90;;;;;;5023120;28;20653;-69
2021/10/25 00:22:15;;;;;;;10.33;5.37;;;8.40;99.90;;;;;;5032001;28;20188;-68
2021/10/25 00:24:40;;;;;;;5.80;5.30;;;8.40;99.90;;;;;;5032813;28;20935;-68
2021/10/25 00:27:06;;;;;;;10.60;5.60;;;8.40;99.90;;;;;;5032687;28;20407;-69
2021/10/25 00:29:32;;;;;;;7.00;5.87;;;8.40;99.90;;;;;;5023322;28;20184;-68
2021/10/25 00:31:58;;;;;;;10.70;7.53;;;8.30;99.90;;;;;;5032818;28;20207;-68
2021/10/25 00:34:23;;;;;;;8.63;6.40;;;8.30;99.90;;;;;;5032679;28;20157;-68
2021/10/25 00:36:49;;;;;;;10.27;7.00;;;8.30;99.90;;;;;;5023090;28;20414;-68
2021/10/25 00:39:15;;;;;;;6.27;5.67;;;8.30;99.90;;;;;;5012985;28;20154;-68
2021/10/25 00:41:41;;;;;;;12.80;8.87;;;8.30;99.90;;;;;;5031871;28;20451;-68
2021/10/25 00:44:07;;;;;;;15.83;10.73;;;8.30;99.90;;;;;;5032158;28;20200;-68
2021/10/25 00:46:33;;;;;;;17.43;10.50;;;8.30;99.90;;;;;;5032445;28;20391;-68
2021/10/25 00:48:59;;;;;;;9.83;6.70;;;8.30;99.90;;;;;;5032184;28;20987;-70
2021/10/25 00:51:25;;;;;;;8.33;6.47;;;8.30;99.90;;;;;;5032142;28;20514;-69
2021/10/25 00:53:51;;;;;;;6.00;5.40;;;8.30;99.90;;;;;;5022586;28;20458;-68
2021/10/25 00:56:17;;;;;;;6.60;6.00;;;8.30;99.90;;;;;;5012640;28;20396;-68
2021/10/25 00:58:42;;;;;;;6.07;5.53;;;8.30;99.90;;;;;;5012376;28;20220;-67
2021/10/25 01:01:08;;;;;;;9.03;5.30;;;8.30;99.90;;;;;;5026017;28;20549;-68
2021/10/25 01:03:35;;;;;;;8.90;5.60;;;8.30;99.90;;;;;;5032186;28;20184;-68
2021/10/25 01:06:01;;;;;;;9.33;6.90;;;8.30;99.90;;;;;;5032254;28;20395;-68
2021/10/25 01:08:32;;;;;;;12.97;8.73;;;8.30;99.90;;;;;;5032269;28;20398;-68
2021/10/25 01:10:58;;;;;;;22.50;13.40;;;8.30;99.90;;;;;;5021195;28;20460;-69
2021/10/25 01:13:24;;;;;;;16.37;10.27;;;8.30;99.90;;;;;;5027176;28;20852;-67
2021/10/25 01:15:50;;;;;;;16.53;10.17;;;8.30;99.90;;;;;;5031952;28;20430;-65
2021/10/25 01:18:15;;;;;;;24.23;14.40;;;8.30;99.90;;;;;;5029897;28;20445;-67
2021/10/25 01:20:41;;;;;;;10.70;7.53;;;8.30;99.90;;;;;;5031834;28;20649;-67
2021/10/25 01:23:07;;;;;;;14.63;9.80;;;8.30;99.90;;;;;;5031788;28;20211;-67
2021/10/25 01:25:34;;;;;;;10.80;8.23;;;8.30;99.90;;;;;;5032114;28;20896;-66
2021/10/25 01:28:01;;;;;;;10.87;6.30;;;8.30;99.90;;;;;;5021113;28;20428;-67
2021/10/25 01:30:27;;;;;;;7.63;5.47;;;8.30;99.90;;;;;;5017693;28;20411;-67
2021/10/25 01:32:53;;;;;;;6.80;5.27;;;8.30;99.90;;;;;;5031916;28;20395;-66
2021/10/25 01:35:19;;;;;;;9.63;5.70;;;8.30;99.90;;;;;;5031989;28;20407;-67
2021/10/25 01:37:45;;;;;;;5.80;5.17;;;8.30;99.90;;;;;;5031962;28;20388;-67
2021/10/25 01:40:11;;;;;;;9.10;4.90;;;8.30;99.90;;;;;;5031634;28;20174;-70
2021/10/25 01:42:38;;;;;;;5.50;4.90;;;8.30;99.90;;;;;;5031627;28;20438;-67
2021/10/25 01:45:05;;;;;;;13.67;8.27;;;8.30;99.90;;;;;;5020188;28;20412;-67
2021/10/25 01:47:30;;;;;;;21.80;11.23;;;8.30;99.90;;;;;;5016291;28;20419;-67
2021/10/25 01:49:56;;;;;;;17.90;11.33;;;8.20;99.90;;;;;;5031623;28;20985;-67
2021/10/25 01:52:22;;;;;;;12.20;9.00;;;8.20;99.90;;;;;;5031493;28;20221;-67
2021/10/25 01:54:48;;;;;;;12.20;8.20;;;8.20;99.90;;;;;;5032001;28;20161;-67
2021/10/25 01:57:14;;;;;;;10.27;6.83;;;8.20;99.90;;;;;;5032056;28;20799;-67
2021/10/25 01:59:40;;;;;;;19.23;9.73;;;8.20;99.90;;;;;;5031939;28;20392;-67
2021/10/25 02:02:06;;;;;;;17.93;11.77;;;8.20;99.90;;;;;;5019555;28;20188;-67
2021/10/25 02:04:31;;;;;;;25.30;14.40;;;8.20;99.90;;;;;;5012031;28;20527;-68
2021/10/25 02:06:57;;;;;;;13.53;10.10;;;8.20;99.90;;;;;;5011918;28;20165;-67
2021/10/25 02:09:23;;;;;;;9.77;6.67;;;8.10;99.90;;;;;;5011781;28;20204;-67
2021/10/25 02:11:49;;;;;;;7.80;6.20;;;8.10;99.90;;;;;;5022001;28;20462;-67
2021/10/25 02:14:15;;;;;;;9.07;5.93;;;8.20;99.90;;;;;;5031265;28;20419;-69
2021/10/25 02:16:41;;;;;;;8.53;5.77;;;8.20;99.90;;;;;;5031580;28;20508;-67
2021/10/25 02:19:08;;;;;;;5.67;5.00;;;8.20;99.90;;;;;;5013070;28;20662;-66
2021/10/25 02:21:33;;;;;;;6.30;5.10;;;8.10;99.90;;;;;;5019746;28;20442;-67
2021/10/25 02:23:59;;;;;;;5.47;4.90;;;8.10;99.90;;;;;;5031159;28;20470;-67
2021/10/25 02:26:24;;;;;;;6.73;5.00;;;8.10;99.90;;;;;;5031658;28;20179;-67
2021/10/25 02:28:51;;;;;;;7.27;4.80;;;8.10;99.90;;;;;;5031369;28;20676;-67
2021/10/25 02:31:16;;;;;;;6.03;4.97;;;8.10;99.90;;;;;;5032871;28;20206;-67
2021/10/25 02:33:42;;;;;;;7.90;5.00;;;8.10;99.90;;;;;;5034810;28;20824;-67
2021/10/25 02:36:08;;;;;;;5.97;4.50;;;8.00;99.90;;;;;;5022743;28;20454;-67
2021/10/25 02:38:37;;;;;;;7.17;6.03;;;8.00;99.90;;;;;;5014999;28;20405;-67
2021/10/25 02:41:03;;;;;;;5.30;4.50;;;8.00;99.90;;;;;;5028660;28;20427;-67
2021/10/25 02:43:29;;;;;;;5.90;5.13;;;8.00;99.90;;;;;;5034773;28;20451;-68
2021/10/25 02:45:57;;;;;;;6.63;5.53;;;8.00;99.90;;;;;;5034621;28;20406;-67
2021/10/25 02:48:23;;;;;;;7.17;4.67;;;8.00;99.90;;;;;;5034708;28;20157;-67
2021/10/25 02:50:48;;;;;;;6.20;4.70;;;8.00;99.90;;;;;;5034418;28;20427;-67
2021/10/25 02:53:14;;;;;;;5.73;5.17;;;8.00;99.90;;;;;;5021745;28;20211;-68
2021/10/25 02:55:40;;;;;;;4.87;4.37;;;8.00;99.90;;;;;;5015364;28;20154;-72
2021/10/25 02:58:06;;;;;;;6.23;5.63;;;8.00;99.90;;;;;;5014888;28;20169;-72
2021/10/25 03:00:31;;;;;;;5.30;4.80;;;8.00;99.90;;;;;;5023876;28;20438;-67
2021/10/25 03:02:57;;;;;;;5.07;4.67;;;8.00;99.90;;;;;;5034336;28;20559;-68
2021/10/25 03:05:23;;;;;;;5.83;4.80;;;8.00;99.90;;;;;;5034456;28;20230;-67
2021/10/25 03:07:49;;;;;;;5.40;4.90;;;8.00;99.90;;;;;;5034378;28;20153;-67
2021/10/25 03:10:15;;;;;;;6.40;5.20;;;8.00;99.90;;;;;;5026913;28;20430;-67
2021/10/25 03:12:41;;;;;;;5.23;4.73;;;8.00;99.90;;;;;;5034301;28;20404;-67
2021/10/25 03:15:08;;;;;;;6.27;5.43;;;8.00;99.90;;;;;;5034209;28;20388;-67
2021/10/25 03:17:35;;;;;;;7.07;6.17;;;8.00;99.90;;;;;;5034116;28;20156;-67
2021/10/25 03:20:02;;;;;;;6.40;4.60;;;8.00;99.90;;;;;;5033816;28;20430;-70
2021/10/25 03:22:28;;;;;;;7.30;5.07;;;8.00;99.90;;;;;;5033812;28;20431;-67
2021/10/25 03:24:54;;;;;;;5.50;4.80;;;8.00;99.90;;;;;;5033851;28;20482;-67
2021/10/25 03:27:19;;;;;;;5.67;4.93;;;8.00;99.90;;;;;;5020110;28;20515;-67
2021/10/25 03:29:45;;;;;;;7.23;4.87;;;8.00;99.90;;;;;;5014374;28;20260;-67
2021/10/25 03:32:10;;;;;;;7.77;4.77;;;8.00;99.90;;;;;;5033707;28;20206;-68
2021/10/25 03:34:36;;;;;;;6.07;5.47;;;8.00;99.90;;;;;;5033930;28;20164;-67
2021/10/25 03:37:02;;;;;;;5.40;4.70;;;8.00;99.90;;;;;;5033527;28;20530;-67
2021/10/25 03:39:31;;;;;;;5.73;4.70;;;8.00;99.90;;;;;;5033552;28;20180;-67
2021/10/25 03:41:58;;;;;;;5.47;4.97;;;8.00;99.90;;;;;;5033460;28;21005;-68
2021/10/25 03:44:27;;;;;;;7.00;4.83;;;8.00;99.90;;;;;;5019041;28;20448;-67
2021/10/25 03:46:59;;;;;;;7.10;4.57;;;8.00;99.90;;;;;;5013996;28;20416;-67
2021/10/25 03:52:14;;;;;;;6.73;5.47;;;8.00;99.90;;;;;;5069210;28;20657;-67
2021/10/25 03:54:48;;;;;;;5.70;5.20;;;8.00;99.90;;;;;;5069491;28;20405;-66
2021/10/25 04:02:51;;;;;;;5.60;5.10;;;8.00;99.90;;;;;;5076460;28;20437;-68
2021/10/25 04:27:21;;;;;;;5.93;5.27;;;7.90;99.90;;;;;;5108592;28;20407;-66
2021/10/25 04:29:49;;;;;;;6.37;4.67;;;7.90;99.90;;;;;;5108600;28;20406;-69
2021/10/25 04:32:15;;;;;;;5.77;5.27;;;7.90;99.90;;;;;;5109651;28;20911;-68
2021/10/25 04:34:41;;;;;;;6.23;5.10;;;7.90;99.90;;;;;;5101068;28;20463;-68
2021/10/25 04:37:06;;;;;;;6.60;5.07;;;7.80;99.90;;;;;;5090077;28;20647;-68
2021/10/25 04:39:32;;;;;;;8.03;5.57;;;7.80;99.90;;;;;;5090486;28;20173;-68
2021/10/25 04:41:57;;;;;;;5.83;5.07;;;7.80;99.90;;;;;;5099963;28;20194;-68
2021/10/25 04:44:24;;;;;;;7.47;5.20;;;7.80;99.90;;;;;;5089217;28;20162;-68
2021/10/25 04:46:50;;;;;;;6.50;5.20;;;7.70;99.90;;;;;;5089066;28;20521;-68
2021/10/25 04:49:15;;;;;;;9.27;4.83;;;7.70;99.90;;;;;;5089445;28;20396;-68
2021/10/25 04:51:41;;;;;;;5.30;4.80;;;7.70;99.90;;;;;;5088507;28;20205;-68
2021/10/25 04:54:06;;;;;;;5.53;4.37;;;7.70;99.90;;;;;;5088819;28;20182;-68
2021/10/25 04:56:32;;;;;;;5.90;5.30;;;7.70;99.90;;;;;;5089140;28;20479;-68
2021/10/25 04:58:57;;;;;;;6.63;5.67;;;7.70;99.90;;;;;;5088878;28;20184;-69
2021/10/25 05:01:23;;;;;;;6.63;5.57;;;7.70;99.90;;;;;;5088485;28;20257;-69
2021/10/25 05:03:49;;;;;;;6.40;5.37;;;7.70;99.90;;;;;;5083220;28;20261;-69
2021/10/25 05:06:17;;;;;;;6.33;4.80;;;7.70;99.90;;;;;;5081597;28;20171;-68
2021/10/25 05:08:45;;;;;;;7.00;5.70;;;7.70;99.90;;;;;;5086867;28;20504;-68
2021/10/25 05:11:11;;;;;;;5.93;5.33;;;7.70;99.90;;;;;;5086067;28;20435;-68
2021/10/25 05:13:37;;;;;;;5.37;4.87;;;7.70;99.90;;;;;;5083321;28;20750;-68
2021/10/25 05:16:02;;;;;;;7.13;6.50;;;7.70;99.90;;;;;;5086601;28;20206;-69
2021/10/25 05:18:28;;;;;;;5.57;5.07;;;7.80;99.90;;;;;;5087496;28;20700;-68
2021/10/25 05:20:53;;;;;;;15.50;6.60;;;7.80;99.90;;;;;;5086066;28;20647;-68
2021/10/25 05:23:19;;;;;;;5.00;4.53;;;7.70;99.90;;;;;;5085221;28;20175;-68
2021/10/25 05:25:45;;;;;;;8.23;6.40;;;7.80;99.90;;;;;;5083269;28;20171;-68
2021/10/25 05:28:11;;;;;;;5.57;4.97;;;7.80;99.90;;;;;;5070041;28;20658;-68
2021/10/25 05:30:36;;;;;;;7.00;5.07;;;7.80;99.90;;;;;;5070956;28;20418;-68
2021/10/25 05:33:02;;;;;;;5.73;4.73;;;7.80;99.90;;;;;;5074749;28;20379;-70
2021/10/25 05:35:27;;;;;;;9.00;5.30;;;7.90;99.90;;;;;;5074451;28;20729;-68
2021/10/25 05:37:53;;;;;;;6.80;4.37;;;7.80;99.90;;;;;;5074012;28;20156;-68
2021/10/25 05:40:19;;;;;;;6.70;4.90;;;7.90;99.90;;;;;;5073710;28;20216;-72
2021/10/25 05:42:45;;;;;;;8.20;5.13;;;7.90;99.90;;;;;;5063875;28;20675;-68
2021/10/25 05:45:10;;;;;;;5.53;4.93;;;7.90;99.90;;;;;;5071487;28;20656;-68
2021/10/25 05:47:36;;;;;;;8.50;4.57;;;7.90;99.90;;;;;;5072052;28;20194;-71
2021/10/25 05:50:02;;;;;;;4.83;4.33;;;7.90;99.90;;;;;;5072805;28;20638;-69
2021/10/25 05:52:29;;;;;;;6.40;4.97;;;7.90;99.90;;;;;;5071694;28;20196;-69
2021/10/25 05:54:55;;;;;;;5.80;4.80;;;7.90;99.90;;;;;;5072728;28;20460;-68
2021/10/25 05:57:21;;;;;;;6.50;5.50;;;7.90;99.90;;;;;;5072036;28;20433;-68
2021/10/25 05:59:49;;;;;;;5.73;5.10;;;7.90;99.90;;;;;;5071504;28;20186;-71
2021/10/25 06:04:58;;;;;;;7.97;5.73;;;7.80;99.90;;;;;;5067252;28;21136;-68
2021/10/25 06:07:24;;;;;;;7.77;5.50;;;7.80;99.90;;;;;;5062995;28;20458;-68
2021/10/25 06:09:50;;;;;;;9.30;5.87;;;7.80;99.90;;;;;;5063673;28;20181;-68
2021/10/25 06:12:18;;;;;;;6.40;4.63;;;7.80;99.90;;;;;;5059992;28;20895;-69
2021/10/25 06:14:46;;;;;;;8.93;5.97;;;7.80;99.90;;;;;;5045139;28;20444;-69
2021/10/25 06:19:59;;;;;;;8.57;5.43;;;7.70;99.90;;;;;;5055955;28;20454;-68
2021/10/25 06:22:28;;;;;;;8.83;4.53;;;7.70;99.90;;;;;;5052313;28;20430;-69
2021/10/25 06:24:53;;;;;;;5.97;4.90;;;7.70;99.90;;;;;;5049990;28;20672;-66
2021/10/25 06:27:19;;;;;;;8.27;5.67;;;7.70;99.90;;;;;;5064266;28;20494;-68
2021/10/25 06:29:45;;;;;;;8.30;5.80;;;7.70;99.90;;;;;;5058086;28;20203;-68
2021/10/25 06:32:11;;;;;;;6.73;5.93;;;7.70;99.90;;;;;;5044367;28;20309;-67
2021/10/25 06:34:40;;;;;;;9.27;6.20;;;7.70;99.90;;;;;;5028521;28;20199;-68
2021/10/25 06:37:06;;;;;;;6.60;5.47;;;7.60;99.90;;;;;;5039144;28;20437;-72
2021/10/25 06:39:41;;;;;;;6.10;5.50;;;7.60;99.90;;;;;;5044546;28;20925;-68
2021/10/25 06:42:09;;;;;;;5.97;4.80;;;7.60;99.90;;;;;;5040459;28;20461;-69
2021/10/25 06:44:44;;;;;;;10.60;5.17;;;7.60;99.90;;;;;;5036136;28;20466;-67
2021/10/25 06:47:09;;;;;;;6.60;5.10;;;7.60;99.90;;;;;;5042056;28;20441;-68
2021/10/25 06:49:35;;;;;;;5.47;4.80;;;7.60;99.90;;;;;;5039835;28;20422;-68
2021/10/25 06:52:01;;;;;;;6.80;5.40;;;7.60;99.90;;;;;;5035002;28;20566;-68
2021/10/25 06:54:26;;;;;;;5.93;5.30;;;7.70;99.90;;;;;;5040176;28;20184;-68
2021/10/25 06:56:52;;;;;;;13.90;5.37;;;7.70;99.90;;;;;;5041420;28;20586;-68
2021/10/25 06:59:18;;;;;;;7.17;5.03;;;7.70;99.90;;;;;;5038143;28;20186;-69
2021/10/25 07:01:43;;;;;;;8.83;5.40;;;7.70;99.90;;;;;;5035975;28;20718;-68
2021/10/25 07:04:09;;;;;;;6.43;5.10;;;7.70;99.90;;;;;;5035492;28;20289;-68
2021/10/25 07:06:35;;;;;;;4.40;4.00;;;7.70;99.90;;;;;;5035785;28;20176;-67
2021/10/25 07:09:03;;;;;;;5.30;4.33;;;7.70;99.90;;;;;;5046100;28;20183;-67
2021/10/25 07:11:29;;;;;;;5.33;4.40;;;7.70;99.90;;;;;;5039275;28;20410;-67
2021/10/25 07:13:55;;;;;;;6.67;4.53;;;7.80;99.90;;;;;;5036488;28;20765;-68
2021/10/25 07:16:27;;;;;;;5.30;3.67;;;7.80;99.90;;;;;;5025553;28;20446;-68
2021/10/25 08:00:54;;;;;;;4.67;4.20;;;8.70;99.90;;;;;;5097388;28;20418;-69
2021/10/25 08:05:51;;;;;;;6.43;4.53;;;8.90;99.90;;;;;;5060354;28;20802;-76
2021/10/25 08:08:27;;;;;;;4.30;3.90;;;8.90;99.90;;;;;;5052506;28;20454;-75
2021/10/25 08:11:01;;;;;;;9.70;3.83;;;9.00;99.90;;;;;;5042272;28;20426;-75
2021/10/25 08:13:32;;;;;;;6.30;4.47;;;9.10;99.90;;;;;;5046097;28;20423;-75
2021/10/25 08:15:58;;;;;;;6.47;4.70;;;9.10;99.90;;;;;;5040549;28;20424;-77
2021/10/25 08:21:23;;;;;;;6.07;5.20;;;9.20;99.90;;;;;;5109794;27;20561;-68
2021/10/25 08:23:49;;;;;;;6.60;5.60;;;9.30;99.90;;;;;;5102643;28;20424;-69
2021/10/25 08:26:15;;;;;;;5.73;5.23;;;9.40;99.90;;;;;;5097019;28;20180;-68
2021/10/25 08:28:41;;;;;;;7.93;5.00;;;9.40;99.90;;;;;;5101933;28;20474;-70
2021/10/25 08:31:09;;;;;;;4.70;3.93;;;9.40;99.90;;;;;;5090956;28;20442;-67
2021/10/25 08:36:21;;;;;;;5.40;4.67;;;9.60;99.90;;;;;;5065643;28;20524;-69
2021/10/25 08:41:34;;;;;;;6.03;4.30;;;9.70;99.90;;;;;;5058884;28;20969;-67
2021/10/25 08:44:04;;;;;;;4.67;3.67;;;9.80;99.90;;;;;;5047250;28;20923;-67
2021/10/25 08:46:30;;;;;;;5.30;3.90;;;9.90;99.90;;;;;;5047950;28;20908;-68
2021/10/25 08:48:56;;;;;;;4.33;3.80;;;10.00;99.90;;;;;;5041363;28;20433;-68
2021/10/25 08:51:24;;;;;;;5.77;3.40;;;10.10;99.90;;;;;;5048106;28;20409;-68
2021/10/25 08:53:49;;;;;;;6.20;3.67;;;10.10;99.90;;;;;;5048464;28;20179;-68
2021/10/25 08:56:17;;;;;;;6.30;5.70;;;10.10;99.90;;;;;;5047872;28;20512;-68
2021/10/25 08:58:45;;;;;;;4.20;3.77;;;10.20;99.90;;;;;;5047013;28;20171;-68
2021/10/25 09:01:23;;;;;;;5.33;3.60;;;10.20;99.90;;;;;;5046626;28;20478;-67
2021/10/25 09:04:06;;;;;;;5.50;3.37;;;10.30;99.90;;;;;;5044588;28;20425;-69
2021/10/25 09:06:31;;;;;;;4.17;3.30;;;10.30;99.90;;;;;;5045219;28;20425;-67
2021/10/25 09:09:04;;;;;;;3.97;3.50;;;10.40;99.90;;;;;;5039697;28;20968;-68
2021/10/25 09:11:30;;;;;;;5.43;3.60;;;10.50;99.90;;;;;;5031865;28;20341;-68
2021/10/25 09:13:56;;;;;;;4.40;3.60;;;10.50;99.90;;;;;;5043984;28;20443;-68
2021/10/25 09:16:22;;;;;;;5.83;3.33;;;10.60;99.90;;;;;;5044749;28;20434;-69
2021/10/25 09:18:48;;;;;;;4.53;2.90;;;10.60;99.90;;;;;;5045505;28;20316;-68
2021/10/25 09:21:14;;;;;;;6.80;3.67;;;10.70;99.90;;;;;;5047425;28;20201;-69
2021/10/25 09:23:45;;;;;;;5.03;3.97;;;10.80;99.90;;;;;;5044139;28;20797;-69
2021/10/25 09:28:52;;;;;;;4.03;3.57;;;10.80;99.90;;;;;;5066373;28;20540;-68
2021/10/25 09:31:26;;;;;;;5.23;3.93;;;10.90;99.90;;;;;;5052049;28;20781;-70
2021/10/25 09:33:56;;;;;;;5.10;3.47;;;11.00;99.90;;;;;;5061511;28;20432;-69
2021/10/25 09:36:30;;;;;;;5.97;3.70;;;11.00;99.90;;;;;;5064389;28;20409;-67
2021/10/25 09:49:57;;;;;;;4.80;4.30;;;11.30;99.90;;;;;;5128677;28;20828;-68
2021/10/25 09:52:29;;;;;;;5.17;3.83;;;11.30;99.90;;;;;;5127447;28;20486;-69
2021/10/25 09:54:58;;;;;;;5.83;4.10;;;11.40;99.90;;;;;;5110961;28;20421;-69
2021/10/25 09:57:27;;;;;;;4.00;3.60;;;11.40;99.90;;;;;;5115887;27;20449;-68
2021/10/25 09:59:56;;;;;;;5.20;3.03;;;11.40;99.90;;;;;;5108988;28;20420;-68
2021/10/25 10:02:23;;;;;;;4.43;3.70;;;11.40;99.90;;;;;;5124872;27;20448;-69
2021/10/25 10:04:56;;;;;;;5.07;3.80;;;11.50;99.90;;;;;;5130056;28;20492;-68
2021/10/25 10:07:21;;;;;;;4.87;3.03;;;11.60;99.90;;;;;;5115976;28;20534;-68
2021/10/25 10:09:49;;;;;;;4.10;2.90;;;11.60;99.90;;;;;;5109115;28;20488;-69
2021/10/25 10:12:18;;;;;;;3.83;2.83;;;11.70;99.90;;;;;;5115552;28;20198;-68
2021/10/25 10:14:46;;;;;;;3.77;2.87;;;11.60;99.90;;;;;;5111431;28;20947;-68
2021/10/25 10:17:18;;;;;;;4.40;3.63;;;11.70;99.90;;;;;;5126497;28;20403;-67
2021/10/25 10:19:46;;;;;;;3.10;2.80;;;11.70;99.90;;;;;;5122779;28;20459;-67
2021/10/25 10:22:14;;;;;;;4.60;3.57;;;11.70;99.90;;;;;;5117972;28;20457;-68
2021/10/25 10:24:41;;;;;;;4.30;3.80;;;11.70;99.90;;;;;;5116497;27;21550;-68
2021/10/25 10:27:08;;;;;;;3.80;3.27;;;11.70;99.90;;;;;;5125159;28;20490;-67
2021/10/25 10:29:37;;;;;;;3.90;3.03;;;11.70;99.90;;;;;;5117942;27;20447;-71
2021/10/25 10:32:06;;;;;;;3.00;2.80;;;11.80;99.90;;;;;;5113906;28;20725;-67
2021/10/25 10:34:42;;;;;;;3.47;3.17;;;11.80;99.90;;;;;;5110195;28;20443;-68
2021/10/25 10:37:25;;;;;;;4.27;2.83;;;11.90;99.90;;;;;;5124575;28;20440;-68
2021/10/25 10:42:37;;;;;;;3.93;2.70;;;11.90;99.90;;;;;;5149540;27;21152;-69
2021/10/25 10:45:07;;;;;;;4.50;3.40;;;12.00;99.90;;;;;;5126600;27;20435;-69
2021/10/25 10:47:39;;;;;;;4.37;2.77;;;12.00;99.90;;;;;;5122716;28;20435;-68
2021/10/25 10:50:19;;;;;;;4.30;3.70;;;12.00;99.90;;;;;;5137833;27;20424;-70
2021/10/25 10:52:49;;;;;;;3.40;3.10;;;12.10;99.90;;;;;;5114635;28;20498;-68
2021/10/25 11:03:28;;;;;;;4.27;3.63;;;12.40;99.90;;;;;;5129147;27;20516;-67
2021/10/25 11:08:35;;;;;;;5.33;3.00;;;12.50;99.90;;;;;;5084761;27;20610;-68
2021/10/25 11:11:06;;;;;;;3.60;3.13;;;12.80;99.90;;;;;;5068569;28;20414;-68
2021/10/25 11:13:36;;;;;;;3.23;2.93;;;13.00;99.90;;;;;;5062875;28;20415;-68
2021/10/25 11:18:54;;;;;;;3.93;2.60;;;13.20;99.90;;;;;;5047547;28;20453;-68
2021/10/25 11:24:13;;;;;;;3.50;3.10;;;13.40;99.90;;;;;;5054867;28;20592;-69
2021/10/25 11:26:45;;;;;;;3.80;2.80;;;13.60;99.90;;;;;;5072316;28;20877;-68
2021/10/25 11:29:15;;;;;;;3.60;3.30;;;13.60;99.90;;;;;;5070571;28;20422;-67
2021/10/25 11:40:01;;;;;;;6.40;2.80;;;13.70;99.90;;;;;;5054189;28;20540;-69
2021/10/25 11:42:29;;;;;;;4.73;3.17;;;13.70;99.90;;;;;;5029110;28;20479;-68
2021/10/25 11:44:58;;;;;;;3.00;2.60;;;13.60;99.90;;;;;;5029132;28;20420;-68
2021/10/25 11:47:26;;;;;;;3.60;2.47;;;13.70;99.90;;;;;;5028493;28;20400;-67
2021/10/25 11:49:58;;;;;;;4.13;2.80;;;13.60;99.90;;;;;;5040042;28;20533;-68
2021/10/25 11:52:24;;;;;;;4.13;3.73;;;13.60;99.90;;;;;;5033593;28;20929;-67
2021/10/25 11:54:53;;;;;;;11.17;3.93;;;13.70;99.90;;;;;;5028469;28;20435;-68
2021/10/25 11:57:20;;;;;;;4.97;3.57;;;13.70;99.90;;;;;;5030795;28;20963;-67
2021/10/25 12:00:07;;;;;;;3.43;3.13;;;13.70;99.90;;;;;;5038220;28;20452;-68
2021/10/25 12:02:35;;;;;;;4.70;3.37;;;13.80;99.90;;;;;;5031874;28;21022;-68
2021/10/25 12:05:01;;;;;;;5.77;2.90;;;13.90;99.90;;;;;;5042369;28;20508;-69
2021/10/25 12:07:26;;;;;;;3.97;2.90;;;13.90;99.90;;;;;;5031810;28;20439;-69
2021/10/25 12:10:02;;;;;;;4.43;3.03;;;14.00;99.90;;;;;;5041280;28;20176;-69
2021/10/25 12:12:29;;;;;;;4.40;3.43;;;14.00;99.90;;;;;;5026936;28;20166;-69
2021/10/25 12:14:59;;;;;;;3.93;2.83;;;14.10;99.90;;;;;;5044939;28;20411;-69
2021/10/25 12:17:36;;;;;;;2.87;2.67;;;14.20;99.90;;;;;;5042371;28;20466;-69
2021/10/25 12:20:06;;;;;;;3.93;2.60;;;14.20;99.90;;;;;;5038177;28;20503;-68
2021/10/25 12:22:33;;;;;;;6.83;3.20;;;14.20;99.90;;;;;;5027431;28;20428;-68
2021/10/25 12:24:59;;;;;;;6.33;3.43;;;14.30;99.90;;;;;;5033355;28;20420;-68
2021/10/25 12:27:36;;;;;;;4.87;3.07;;;14.30;99.90;;;;;;5028001;28;20403;-69
2021/10/25 12:35:34;;;;;;;3.23;2.93;;;14.50;99.90;;;;;;5068592;28;20590;-69
2021/10/25 12:38:03;;;;;;;3.40;3.10;;;14.70;99.90;;;;;;5069092;28;20474;-68
2021/10/25 12:40:38;;;;;;;4.03;3.47;;;14.70;99.90;;;;;;5065602;28;20434;-68
2021/10/25 12:43:04;;;;;;;4.33;3.13;;;14.80;99.90;;;;;;5048955;28;20798;-69
2021/10/25 12:45:37;;;;;;;4.70;2.90;;;14.90;99.90;;;;;;5049263;28;20757;-68
2021/10/25 12:48:03;;;;;;;4.43;3.10;;;15.00;99.90;;;;;;5049702;28;20407;-68
2021/10/25 12:50:33;;;;;;;3.37;3.00;;;15.00;99.90;;;;;;5049024;28;20780;-68
2021/10/25 12:52:58;;;;;;;3.90;2.70;;;15.10;99.90;;;;;;5048722;28;20164;-69
2021/10/25 12:55:24;;;;;;;5.03;2.83;;;15.10;99.90;;;;;;5052300;28;20951;-69
2021/10/25 12:57:54;;;;;;;3.27;2.57;;;15.10;99.90;;;;;;5067056;28;20516;-68
2021/10/25 13:00:20;;;;;;;4.37;3.23;;;15.20;99.90;;;;;;5065451;28;20180;-69
2021/10/25 13:02:48;;;;;;;3.17;2.60;;;15.20;99.90;;;;;;5058587;28;20414;-69
2021/10/25 13:05:20;;;;;;;5.33;3.07;;;15.20;99.90;;;;;;5059114;28;20199;-69
2021/10/25 13:10:28;;;;;;;3.50;3.20;;;15.30;99.90;;;;;;5105587;27;21082;-68
2021/10/25 13:12:56;;;;;;;3.10;2.80;;;15.20;99.90;;;;;;5099463;28;20529;-68
2021/10/25 13:15:23;;;;;;;4.17;2.90;;;15.20;99.90;;;;;;5089040;28;20444;-67
2021/10/25 13:17:50;;;;;;;6.40;3.27;;;15.30;99.90;;;;;;5089050;28;20843;-68
2021/10/25 13:20:18;;;;;;;4.83;3.23;;;15.30;99.90;;;;;;5089060;28;20387;-67
2021/10/25 13:22:45;;;;;;;3.60;2.87;;;15.30;99.90;;;;;;5088838;28;20918;-67
2021/10/25 13:25:10;;;;;;;3.90;2.70;;;15.30;99.90;;;;;;5088091;28;20418;-68
2021/10/25 13:27:37;;;;;;;5.73;2.60;;;15.30;99.90;;;;;;5087652;28;20391;-69
2021/10/25 13:30:05;;;;;;;4.23;2.97;;;15.30;99.90;;;;;;5088081;28;20272;-67
2021/10/25 13:32:31;;;;;;;3.10;2.63;;;15.30;99.90;;;;;;5088728;28;20419;-67
2021/10/25 13:34:56;;;;;;;4.80;3.70;;;15.30;99.90;;;;;;5089011;28;20405;-67
2021/10/25 13:37:22;;;;;;;7.53;3.37;;;15.30;99.90;;;;;;5088884;28;20178;-68
2021/10/25 13:39:48;;;;;;;5.50;3.30;;;15.30;99.90;;;;;;5085738;28;20204;-71
2021/10/25 13:42:15;;;;;;;5.53;4.50;;;15.30;99.90;;;;;;5078801;28;20279;-67
2021/10/25 13:44:42;;;;;;;4.00;3.53;;;15.30;99.90;;;;;;5068622;28;20153;-68
2021/10/25 13:47:08;;;;;;;7.57;4.40;;;15.20;99.90;;;;;;5068197;28;20415;-67
2021/10/25 13:49:34;;;;;;;5.77;4.53;;;15.20;99.90;;;;;;5068375;28;20449;-68
2021/10/25 13:52:00;;;;;;;6.53;5.20;;;15.20;99.90;;;;;;5098106;28;20409;-68
2021/10/25 13:54:27;;;;;;;6.67;4.63;;;15.10;99.90;;;;;;5108611;28;20604;-67
2021/10/25 13:56:52;;;;;;;7.10;4.67;;;15.10;99.90;;;;;;5074177;28;20180;-68
2021/10/25 13:59:18;;;;;;;4.90;3.10;;;15.10;99.90;;;;;;5072386;28;20437;-69
2021/10/25 14:01:46;;;;;;;4.00;3.60;;;15.10;99.90;;;;;;5086563;28;20180;-67
2021/10/25 14:04:16;;;;;;;6.87;3.57;;;15.00;99.90;;;;;;5080357;28;20266;-67
2021/10/25 14:06:42;;;;;;;4.30;3.90;;;15.00;99.90;;;;;;5087915;28;20447;-68
2021/10/25 14:09:07;;;;;;;3.97;3.57;;;15.00;99.90;;;;;;5087701;28;20461;-68
2021/10/25 14:11:37;;;;;;;3.93;3.40;;;15.00;99.90;;;;;;5088188;28;20532;-68
2021/10/25 14:16:48;;;;;;;4.30;3.13;;;15.00;99.90;;;;;;5089054;27;20613;-68
2021/10/25 14:19:14;;;;;;;7.43;3.07;;;15.00;99.90;;;;;;5082759;28;20502;-69
2021/10/25 14:21:40;;;;;;;4.70;3.17;;;15.00;99.90;;;;;;5078160;28;20422;-69
2021/10/25 14:24:08;;;;;;;3.90;3.00;;;15.00;99.90;;;;;;5079625;28;20345;-70
2021/10/25 14:26:34;;;;;;;6.50;3.90;;;15.00;99.90;;;;;;5075364;28;20560;-69
2021/10/25 14:29:00;;;;;;;11.20;3.77;;;15.00;99.90;;;;;;5069273;28;20433;-70
2021/10/25 14:31:26;;;;;;;4.37;3.00;;;15.00;99.90;;;;;;5086874;28;20410;-68
2021/10/25 14:33:55;;;;;;;4.20;2.70;;;15.10;99.90;;;;;;5088235;28;20401;-68
2021/10/25 14:36:22;;;;;;;6.53;3.57;;;15.10;99.90;;;;;;5089157;28;20480;-69
2021/10/25 14:41:34;;;;;;;3.90;3.07;;;15.10;99.90;;;;;;5057653;27;20540;-69
2021/10/25 14:44:05;;;;;;;4.70;3.57;;;15.10;99.90;;;;;;5026222;28;20393;-68
2021/10/25 14:46:40;;;;;;;3.90;3.53;;;15.00;99.90;;;;;;5017909;28;20766;-69
2021/10/25 14:57:25;;;;;;;3.40;2.80;;;15.00;99.90;;;;;;5005107;28;20409;-69
2021/10/25 14:59:52;;;;;;;6.70;3.20;;;15.00;99.90;;;;;;5052015;28;20482;-73
2021/10/25 15:02:19;;;;;;;4.37;2.93;;;15.00;99.90;;;;;;5129665;28;20432;-68
2021/10/25 15:04:46;;;;;;;5.00;2.90;;;15.10;99.90;;;;;;5017010;28;20956;-68
2021/10/25 15:07:14;;;;;;;3.20;2.70;;;15.00;99.90;;;;;;5005640;28;20401;-69
2021/10/25 15:09:41;;;;;;;3.90;3.50;;;15.00;99.90;;;;;;5006057;28;20417;-68
2021/10/25 15:12:07;;;;;;;3.60;3.30;;;14.90;99.90;;;;;;5005814;28;20390;-68
2021/10/25 15:14:41;;;;;;;5.40;3.37;;;14.80;99.90;;;;;;5005745;28;20897;-68
2021/10/25 15:17:08;;;;;;;4.17;2.83;;;14.70;99.90;;;;;;5005723;28;20161;-69
2021/10/25 15:19:36;;;;;;;6.50;3.83;;;14.60;99.90;;;;;;5005803;28;20533;-68
2021/10/25 15:22:05;;;;;;;4.50;3.70;;;14.50;99.90;;;;;;5006702;28;20408;-68